Island Lookout — WDF6311 — position and weather

sailwx.info

Track history (hours):
 
Tides and Currents Weather Stations Pressure Air Temp Water Temp Dewpoint Dewpoint Depression Visibility Wind Speed Wind Dir Waves Ship Positions

Island Lookout

Owner: Stevens Towing Company Inc., Yonges Island, SC. More information available from US FCC via Universal Licensing System and Coast Guard Vessel Documentation Center.

Last reported at 2015-Jul-04 07:25 UTC. Time now 2015-Jul-06 02:52 UTC.
Position N 38°60' W 076°23'.

Length 22 m; draft 2.9 m.

Type: Towing. MMSI: 367472930.

Date/timePositionNaut miles runAvg speedWind from/ knotsBaromVisibWave heightAir tempDewpointWater temp
2015-Jul-04 07:25N 38°60' W 076°23'6 6.5
2015-Jul-04 06:29N 39°06' W 076°24'6 6.2
2015-Jul-04 05:33N 39°11' W 076°27'6 5.8
2015-Jul-04 04:34N 39°13' W 076°34'1 1.4
2015-Jul-04 03:33N 39°12' W 076°35'0 0.0
2015-Jul-04 02:33N 39°12' W 076°35'0 0.0
2015-Jul-04 01:33N 39°12' W 076°35'0 0.0
2015-Jul-04 00:31N 39°12' W 076°35'0 0.0
2015-Jul-03 23:33N 39°12' W 076°35'1 1.0
2015-Jul-03 22:33N 39°13' W 076°34'0 0.5
2015-Jul-03 21:33N 39°14' W 076°34'1 0.9
2015-Jul-03 20:32N 39°13' W 076°35'4 4.1
2015-Jul-03 19:33N 39°12' W 076°30'21 6.0
2015-Jul-03 16:04N 38°51' W 076°26'  
2015-Jun-29 11:04N 38°50' W 076°26'17 6.0
2015-Jun-29 08:13N 39°07' W 076°24'4 5.8
2015-Jun-29 07:32N 39°11' W 076°26'4 4.1
2015-Jun-29 06:33N 39°13' W 076°30'4 3.9
2015-Jun-29 05:33N 39°12' W 076°35'0 0.0
2015-Jun-29 04:33N 39°12' W 076°35'0 0.0
2015-Jun-29 03:33N 39°12' W 076°35'0 0.0
2015-Jun-29 02:34N 39°12' W 076°35'3 0.2
2015-Jun-28 11:22N 39°13' W 076°32'5 0.5
2015-Jun-28 02:13N 39°17' W 076°36'0 0.1
2015-Jun-27 19:29N 39°17' W 076°35'55 2.3
2015-Jun-26 20:05N 39°41' W 075°31'4 7.1
2015-Jun-26 19:33N 39°44' W 075°30'8 7.8
2015-Jun-26 18:33N 39°50' W 075°22'8 8.0
2015-Jun-26 17:34N 39°52' W 075°13'5 5.3
2015-Jun-26 16:33N 39°56' W 075°08'0 0.0
2015-Jun-26 15:33N 39°56' W 075°08'0 0.0
2015-Jun-26 14:33N 39°56' W 075°08'6 5.8
2015-Jun-26 13:33N 39°52' W 075°13'2 1.5
2015-Jun-26 12:33N 39°51' W 075°15'3 3.2
2015-Jun-26 11:33N 39°53' W 075°12'4 3.9
2015-Jun-26 10:34N 39°56' W 075°08'0 0.3
2015-Jun-26 09:33N 39°56' W 075°08'0 0.0
2015-Jun-26 08:33N 39°56' W 075°08'0 0.0
2015-Jun-26 07:33N 39°56' W 075°08'0 0.0
2015-Jun-26 06:34N 39°56' W 075°08'0 0.0
2015-Jun-26 05:33N 39°56' W 075°08'0 0.0
2015-Jun-26 04:34N 39°56' W 075°08'0 0.0
2015-Jun-26 03:33N 39°56' W 075°08'0 0.0
2015-Jun-26 02:33N 39°56' W 075°08'0 0.0
2015-Jun-26 01:33N 39°56' W 075°08'0 0.0
2015-Jun-26 00:33N 39°56' W 075°08'0 0.0
2015-Jun-25 23:33N 39°56' W 075°08'0 0.0
2015-Jun-25 22:33N 39°56' W 075°08'7 6.8
2015-Jun-25 21:33N 39°51' W 075°14'9 8.6
2015-Jun-25 20:33N 39°48' W 075°25'8 7.8
2015-Jun-25 19:33N 39°42' W 075°31'65 6.2
2015-Jun-25 09:06N 38°53' W 076°26'  
Track history (hours):
 
Tides and Currents Weather Stations Pressure Air Temp Water Temp Dewpoint Dewpoint Depression Visibility Wind Speed Wind Dir Waves Ship Positions

Island Lookout

Owner: Stevens Towing Company Inc., Yonges Island, SC. More information available from US FCC via Universal Licensing System and Coast Guard Vessel Documentation Center.

Last reported at 2015-Jul-04 07:25 UTC. Time now 2015-Jul-06 02:52 UTC.
Position N 38°60' W 076°23'.

Length 22 m; draft 2.9 m.

Type: Towing. MMSI: 367472930.

Date/timePositionNaut miles runAvg speedWind from/ knotsBaromVisibWave heightAir tempDewpointWater temp
2015-Jul-04 07:25N 38°60' W 076°23'6 6.5
2015-Jul-04 06:29N 39°06' W 076°24'6 6.2
2015-Jul-04 05:33N 39°11' W 076°27'6 5.8
2015-Jul-04 04:34N 39°13' W 076°34'1 1.4
2015-Jul-04 03:33N 39°12' W 076°35'0 0.0
2015-Jul-04 02:33N 39°12' W 076°35'0 0.0
2015-Jul-04 01:33N 39°12' W 076°35'0 0.0
2015-Jul-04 00:31N 39°12' W 076°35'0 0.0
2015-Jul-03 23:33N 39°12' W 076°35'1 1.0
2015-Jul-03 22:33N 39°13' W 076°34'0 0.5
2015-Jul-03 21:33N 39°14' W 076°34'1 0.9
2015-Jul-03 20:32N 39°13' W 076°35'4 4.1
2015-Jul-03 19:33N 39°12' W 076°30'21 6.0
2015-Jul-03 16:04N 38°51' W 076°26'  
2015-Jun-29 11:04N 38°50' W 076°26'17 6.0
2015-Jun-29 08:13N 39°07' W 076°24'4 5.8
2015-Jun-29 07:32N 39°11' W 076°26'4 4.1
2015-Jun-29 06:33N 39°13' W 076°30'4 3.9
2015-Jun-29 05:33N 39°12' W 076°35'0 0.0
2015-Jun-29 04:33N 39°12' W 076°35'0 0.0
2015-Jun-29 03:33N 39°12' W 076°35'0 0.0
2015-Jun-29 02:34N 39°12' W 076°35'3 0.2
2015-Jun-28 11:22N 39°13' W 076°32'5 0.5
2015-Jun-28 02:13N 39°17' W 076°36'0 0.1
2015-Jun-27 19:29N 39°17' W 076°35'55 2.3
2015-Jun-26 20:05N 39°41' W 075°31'4 7.1
2015-Jun-26 19:33N 39°44' W 075°30'8 7.8
2015-Jun-26 18:33N 39°50' W 075°22'8 8.0
2015-Jun-26 17:34N 39°52' W 075°13'5 5.3
2015-Jun-26 16:33N 39°56' W 075°08'0 0.0
2015-Jun-26 15:33N 39°56' W 075°08'0 0.0
2015-Jun-26 14:33N 39°56' W 075°08'6 5.8
2015-Jun-26 13:33N 39°52' W 075°13'2 1.5
2015-Jun-26 12:33N 39°51' W 075°15'3 3.2
2015-Jun-26 11:33N 39°53' W 075°12'4 3.9
2015-Jun-26 10:34N 39°56' W 075°08'0 0.3
2015-Jun-26 09:33N 39°56' W 075°08'0 0.0
2015-Jun-26 08:33N 39°56' W 075°08'0 0.0
2015-Jun-26 07:33N 39°56' W 075°08'0 0.0
2015-Jun-26 06:34N 39°56' W 075°08'0 0.0
2015-Jun-26 05:33N 39°56' W 075°08'0 0.0
2015-Jun-26 04:34N 39°56' W 075°08'0 0.0
2015-Jun-26 03:33N 39°56' W 075°08'0 0.0
2015-Jun-26 02:33N 39°56' W 075°08'0 0.0
2015-Jun-26 01:33N 39°56' W 075°08'0 0.0
2015-Jun-26 00:33N 39°56' W 075°08'0 0.0
2015-Jun-25 23:33N 39°56' W 075°08'0 0.0
2015-Jun-25 22:33N 39°56' W 075°08'7 6.8
2015-Jun-25 21:33N 39°51' W 075°14'9 8.6
2015-Jun-25 20:33N 39°48' W 075°25'8 7.8
2015-Jun-25 19:33N 39°42' W 075°31'65 6.2
2015-Jun-25 09:06N 38°53' W 076°26'  

Dump ship's entire track history